Time;durP1;ratioP1;P1;durP2;ratioP2;P2;SDS_P1;SDS_P2;PMS_P1;PMS_P2;Temp;Humidity;BMP_temperature;BMP_pressure;BME280_temperature;BME280_humidity;BME280_pressure;Samples;Min_cycle;Max_cycle;Signal;HPM_P1;HPM_P2
2022/07/06 00:01:19;;;;;;;1.30;0.85;;;15.70;95.30;15.70;101141.00;;;;4897187;28;93034;-64
2022/07/06 00:03:45;;;;;;;0.90;0.90;;;15.70;97.30;15.70;101138.00;;;;4895948;28;101339;-64
2022/07/06 00:06:11;;;;;;;1.27;1.15;;;15.70;99.30;15.70;101136.00;;;;4895524;28;122392;-64
2022/07/06 00:08:38;;;;;;;1.05;0.95;;;15.60;99.90;15.60;101142.00;;;;4895300;28;120465;-65
2022/07/06 00:11:05;;;;;;;1.73;1.15;;;15.60;99.90;15.50;101137.00;;;;4878444;28;92686;-64
2022/07/06 00:13:30;;;;;;;1.27;1.17;;;15.50;99.90;15.40;101139.00;;;;4896470;28;94028;-64
2022/07/06 00:15:56;;;;;;;2.13;1.50;;;15.40;99.90;15.40;101129.00;;;;4896162;28;101494;-63
2022/07/06 00:18:22;;;;;;;1.20;1.10;;;15.30;99.90;15.30;101138.00;;;;4895221;28;120491;-65
2022/07/06 00:20:48;;;;;;;2.05;1.60;;;15.30;99.90;15.30;101142.00;;;;4877367;28;108620;-64
2022/07/06 00:23:13;;;;;;;2.80;1.27;;;15.20;99.90;15.20;101131.00;;;;4896608;28;92779;-64
2022/07/06 00:25:39;;;;;;;1.15;1.05;;;15.20;99.90;15.20;101133.00;;;;4895540;28;113156;-64
2022/07/06 00:28:05;;;;;;;1.52;1.35;;;15.10;99.90;15.10;101130.00;;;;4894304;28;122840;-63
2022/07/06 00:30:30;;;;;;;1.63;1.43;;;15.00;99.90;15.10;101128.00;;;;4895801;28;109841;-65
2022/07/06 00:32:58;;;;;;;1.50;1.13;;;15.00;99.90;15.10;101125.00;;;;4896298;28;109462;-65
2022/07/06 00:35:26;;;;;;;2.03;1.23;;;15.00;99.90;15.00;101118.00;;;;4893887;28;93732;-66
2022/07/06 00:37:52;;;;;;;1.75;1.52;;;14.90;99.90;15.00;101113.00;;;;4900253;28;117735;-65
2022/07/06 00:40:18;;;;;;;1.42;1.33;;;14.90;99.90;15.00;101112.00;;;;4877940;28;93266;-66
2022/07/06 00:42:46;;;;;;;1.63;1.40;;;14.90;99.90;15.00;101110.00;;;;4896734;28;93341;-65
2022/07/06 00:45:14;;;;;;;3.08;1.95;;;14.90;99.90;15.00;101111.00;;;;4895840;28;96072;-64
2022/07/06 00:47:41;;;;;;;2.05;1.42;;;14.90;99.90;15.00;101111.00;;;;4895031;28;93761;-65
2022/07/06 00:50:15;;;;;;;2.47;1.55;;;14.90;99.90;15.00;101111.00;;;;4896150;28;92802;-65
2022/07/06 00:52:51;;;;;;;3.50;1.50;;;14.90;99.90;15.00;101114.00;;;;4896265;28;92857;-65
2022/07/06 00:55:25;;;;;;;1.43;1.30;;;14.90;99.90;15.00;101110.00;;;;4877446;28;92798;-65
2022/07/06 00:57:52;;;;;;;2.35;2.10;;;15.00;99.90;15.00;101091.00;;;;4894313;28;112014;-64
2022/07/06 01:00:22;;;;;;;2.10;1.53;;;14.90;99.90;15.00;101073.00;;;;4894655;28;110654;-65
2022/07/06 01:02:48;;;;;;;1.53;1.20;;;14.90;99.90;15.00;101049.00;;;;4894671;28;93759;-65
2022/07/06 01:05:15;;;;;;;1.80;1.67;;;14.90;99.90;15.00;101044.00;;;;4894045;28;113603;-65
2022/07/06 01:07:43;;;;;;;1.52;1.42;;;14.90;99.90;15.00;101033.00;;;;4895091;28;103420;-65
2022/07/06 01:10:12;;;;;;;2.58;1.80;;;14.90;99.90;14.90;101027.00;;;;4877637;28;92856;-65
2022/07/06 01:12:40;;;;;;;1.50;1.40;;;14.80;99.90;14.90;101023.00;;;;4894193;28;93393;-64
2022/07/06 01:15:10;;;;;;;1.67;1.53;;;14.80;99.90;14.90;101026.00;;;;4894169;28;111137;-65
2022/07/06 01:17:41;;;;;;;1.90;1.80;;;14.80;99.90;14.90;101038.00;;;;4894349;28;111500;-65
2022/07/06 01:20:25;;;;;;;1.10;1.00;;;14.80;99.90;14.90;101040.00;;;;4895545;28;93603;-65
2022/07/06 01:22:52;;;;;;;3.67;1.53;;;14.80;99.90;14.90;101055.00;;;;4878046;28;92945;-65
2022/07/06 01:25:19;;;;;;;1.63;1.40;;;14.80;99.90;14.90;101051.00;;;;4893991;28;105274;-65
2022/07/06 01:27:46;;;;;;;4.45;1.73;;;14.80;99.90;14.90;101055.00;;;;4893681;28;115372;-65
2022/07/06 01:30:15;;;;;;;2.30;1.67;;;14.80;99.90;14.90;101054.00;;;;4894922;28;98159;-65
2022/07/06 01:32:42;;;;;;;1.40;1.30;;;14.80;99.90;14.80;101053.00;;;;4895822;28;92800;-65
2022/07/06 01:35:10;;;;;;;1.47;1.20;;;14.70;99.90;14.80;101052.00;;;;4894517;28;93667;-64
2022/07/06 01:37:36;;;;;;;1.67;1.13;;;14.80;99.90;14.80;101049.00;;;;4894979;28;93614;-64
2022/07/06 01:40:06;;;;;;;1.10;1.10;;;14.70;99.90;14.70;101050.00;;;;4894904;28;92818;-64
2022/07/06 01:42:32;;;;;;;1.63;1.53;;;14.70;99.90;14.70;101053.00;;;;4895215;28;93255;-64
2022/07/06 01:44:57;;;;;;;2.00;1.30;;;14.70;99.90;14.70;101055.00;;;;4893754;28;119518;-64
2022/07/06 01:47:23;;;;;;;2.00;1.80;;;14.60;99.90;14.70;101042.00;;;;4893548;28;121961;-64
2022/07/06 01:49:49;;;;;;;2.30;1.77;;;14.60;99.90;14.60;101046.00;;;;4893747;28;111478;-64
2022/07/06 01:52:15;;;;;;;1.00;1.00;;;14.60;99.90;14.60;101049.00;;;;4909146;28;93901;-64
2022/07/06 01:54:40;;;;;;;2.07;1.83;;;14.50;99.90;14.50;101053.00;;;;4893379;28;123745;-65
2022/07/06 01:57:06;;;;;;;2.03;1.70;;;14.50;99.90;14.50;101045.00;;;;4893933;28;121689;-65
2022/07/06 01:59:31;;;;;;;2.30;1.87;;;14.40;99.90;14.50;101043.00;;;;4875558;28;110068;-65
2022/07/06 02:01:57;;;;;;;2.10;1.50;;;14.40;99.90;14.40;101058.00;;;;4893788;28;108264;-65
2022/07/06 02:04:23;;;;;;;1.73;1.40;;;14.40;99.90;14.40;101048.00;;;;4894100;28;93119;-65
2022/07/06 02:06:49;;;;;;;1.67;1.50;;;14.30;99.90;14.40;101059.00;;;;4894462;28;98444;-64
2022/07/06 02:09:16;;;;;;;1.77;1.67;;;14.30;99.90;14.30;101057.00;;;;4894425;28;107692;-64
2022/07/06 02:11:42;;;;;;;1.27;1.20;;;14.30;99.90;14.30;101075.00;;;;4894720;28;92832;-64
2022/07/06 02:14:08;;;;;;;2.80;1.67;;;14.20;99.90;14.20;101050.00;;;;4893553;28;112855;-63
2022/07/06 02:16:33;;;;;;;1.93;1.83;;;14.20;99.90;14.20;101056.00;;;;4891798;28;120681;-66
2022/07/06 02:18:59;;;;;;;1.73;1.53;;;14.20;99.90;14.20;101062.00;;;;4893405;28;110319;-63
2022/07/06 02:21:25;;;;;;;1.80;1.70;;;14.10;99.90;14.20;101062.00;;;;4893790;28;109019;-64
2022/07/06 02:23:50;;;;;;;1.60;1.50;;;14.10;99.90;14.20;101064.00;;;;4895020;28;93181;-64
2022/07/06 02:26:16;;;;;;;1.50;1.17;;;14.10;99.90;14.20;101058.00;;;;4892304;28;121909;-64
2022/07/06 02:28:42;;;;;;;3.00;2.13;;;14.10;99.90;14.20;101066.00;;;;4891875;28;110249;-64
2022/07/06 02:31:07;;;;;;;1.90;1.17;;;14.10;99.90;14.10;101059.00;;;;4876042;28;108071;-64
2022/07/06 02:33:33;;;;;;;1.70;1.60;;;14.10;99.90;14.10;101057.00;;;;4876369;28;102639;-63
2022/07/06 02:35:59;;;;;;;1.93;1.53;;;14.10;99.90;14.10;101052.00;;;;4892761;28;122107;-64
2022/07/06 02:38:24;;;;;;;1.67;1.47;;;14.10;99.90;14.10;101053.00;;;;4893468;28;110902;-64
2022/07/06 02:40:50;;;;;;;1.73;1.57;;;14.00;99.90;14.00;101051.00;;;;4893382;28;94218;-64
2022/07/06 02:43:16;;;;;;;2.40;1.33;;;14.00;99.90;14.00;101054.00;;;;4892555;28;122296;-64
2022/07/06 02:45:42;;;;;;;1.70;1.60;;;14.00;99.90;13.90;101063.00;;;;4893397;28;99536;-64
2022/07/06 02:48:07;;;;;;;1.80;1.70;;;13.90;99.90;13.90;101056.00;;;;4893586;28;110319;-64
2022/07/06 02:50:33;;;;;;;1.80;1.70;;;13.90;99.90;13.90;101060.00;;;;4860439;28;92770;-64
2022/07/06 02:53:00;;;;;;;2.20;1.87;;;13.90;99.90;13.80;101059.00;;;;4893089;28;121271;-64
2022/07/06 02:55:26;;;;;;;2.37;2.00;;;13.80;99.90;13.80;101062.00;;;;4894709;28;92945;-65
2022/07/06 02:57:52;;;;;;;1.73;1.63;;;13.80;99.90;13.80;101049.00;;;;4897940;28;109306;-64
2022/07/06 03:00:17;;;;;;;2.20;2.00;;;13.70;99.90;13.70;101063.00;;;;4892395;28;108590;-64
2022/07/06 03:02:43;;;;;;;3.53;1.67;;;13.70;99.90;13.70;101053.00;;;;4894081;28;93173;-64
2022/07/06 03:05:09;;;;;;;3.07;1.10;;;13.70;99.90;13.70;101057.00;;;;4892437;28;117002;-65
2022/07/06 03:07:34;;;;;;;1.77;1.67;;;13.70;99.90;13.70;101058.00;;;;4907022;28;111083;-64
2022/07/06 03:10:00;;;;;;;2.47;1.87;;;13.60;99.90;13.60;101053.00;;;;4893168;28;107921;-65
2022/07/06 03:12:26;;;;;;;3.13;1.80;;;13.60;99.90;13.60;101057.00;;;;4907903;28;93174;-64
2022/07/06 03:14:51;;;;;;;2.50;2.30;;;13.60;99.90;13.60;101055.00;;;;4892077;28;118749;-64
2022/07/06 03:17:17;;;;;;;1.50;1.40;;;13.60;99.90;13.60;101071.00;;;;4893282;28;109542;-64
2022/07/06 03:19:43;;;;;;;1.80;1.50;;;13.50;99.90;13.60;101072.00;;;;4893304;28;107771;-64
2022/07/06 03:22:09;;;;;;;2.67;2.20;;;13.50;99.90;13.60;101071.00;;;;4893947;28;93123;-64
2022/07/06 03:24:34;;;;;;;2.37;1.80;;;13.50;99.90;13.60;101075.00;;;;4893232;28;92665;-64
2022/07/06 03:27:00;;;;;;;1.77;1.47;;;13.50;99.90;13.60;101075.00;;;;4892270;28;109602;-64
2022/07/06 03:29:26;;;;;;;2.90;1.80;;;13.50;99.90;13.60;101077.00;;;;4892340;28;108952;-64
2022/07/06 03:31:51;;;;;;;2.33;2.13;;;13.50;99.90;13.50;101089.00;;;;4892221;28;123399;-64
2022/07/06 03:34:17;;;;;;;1.97;1.70;;;13.50;99.90;13.50;101088.00;;;;4891510;28;122164;-64
2022/07/06 03:36:43;;;;;;;2.13;1.67;;;13.50;99.90;13.50;101089.00;;;;4892935;28;109930;-64
2022/07/06 03:39:08;;;;;;;1.80;1.60;;;13.50;99.90;13.60;101100.00;;;;4892510;28;108870;-64
2022/07/06 03:41:34;;;;;;;3.17;2.03;;;13.50;99.90;13.60;101088.00;;;;4892567;28;110708;-64
2022/07/06 03:44:00;;;;;;;3.30;2.07;;;13.50;99.90;13.70;101082.00;;;;4891941;28;122616;-64
2022/07/06 03:46:25;;;;;;;2.17;1.93;;;13.60;99.90;13.70;101087.00;;;;4893123;28;108224;-64
2022/07/06 03:48:51;;;;;;;2.50;2.30;;;13.60;99.90;13.70;101085.00;;;;4893125;28;109093;-64
2022/07/06 03:51:17;;;;;;;2.53;1.67;;;13.60;99.90;13.80;101093.00;;;;4892185;28;124005;-64
2022/07/06 03:53:42;;;;;;;2.43;1.83;;;13.70;99.90;13.80;101082.00;;;;4892141;28;93795;-64
2022/07/06 03:58:54;;;;;;;3.57;1.93;;;13.80;99.90;13.90;101080.00;;;;4890570;28;92755;-64
2022/07/06 04:01:20;;;;;;;2.00;1.83;;;13.80;99.90;13.90;101084.00;;;;4892627;28;108141;-64
2022/07/06 04:03:46;;;;;;;2.10;1.67;;;13.80;99.90;14.00;101084.00;;;;4893546;28;93186;-64
2022/07/06 04:06:11;;;;;;;1.77;1.60;;;13.90;99.90;14.10;101071.00;;;;4892321;28;110648;-64
2022/07/06 04:08:37;;;;;;;2.33;1.83;;;13.90;99.90;14.10;101075.00;;;;4875072;28;93048;-64
2022/07/06 04:11:03;;;;;;;5.00;2.10;;;14.00;99.90;14.20;101076.00;;;;4892270;28;122612;-64
2022/07/06 04:13:29;;;;;;;2.50;2.30;;;14.10;99.90;14.30;101080.00;;;;4893189;28;92846;-64
2022/07/06 04:15:54;;;;;;;1.97;1.87;;;14.20;99.90;14.30;101082.00;;;;4892041;28;112516;-64
2022/07/06 04:18:20;;;;;;;3.07;2.47;;;14.20;99.90;14.40;101081.00;;;;4891437;28;108815;-64
2022/07/06 04:20:46;;;;;;;2.20;2.00;;;14.30;99.90;14.50;101079.00;;;;4892715;28;103585;-64
2022/07/06 04:23:12;;;;;;;3.60;2.33;;;14.40;99.90;14.50;101080.00;;;;4892126;28;122634;-64
2022/07/06 04:25:37;;;;;;;2.43;2.23;;;14.40;99.90;14.50;101079.00;;;;4892758;28;110590;-64
2022/07/06 04:28:03;;;;;;;2.20;2.00;;;14.40;99.90;14.60;101074.00;;;;4893120;28;92710;-64
2022/07/06 04:30:29;;;;;;;2.60;2.00;;;14.50;99.90;14.60;101088.00;;;;4891510;28;114019;-64
2022/07/06 04:32:55;;;;;;;2.60;2.30;;;14.60;99.90;14.70;101083.00;;;;4892878;28;99673;-64
2022/07/06 04:35:21;;;;;;;3.13;2.30;;;14.60;99.90;14.80;101088.00;;;;4891907;28;92064;-64
2022/07/06 04:37:47;;;;;;;1.63;1.47;;;14.70;99.90;14.90;101087.00;;;;4907131;28;93022;-64
2022/07/06 04:40:14;;;;;;;3.37;2.23;;;14.80;99.90;15.00;101089.00;;;;4893148;28;123677;-64
2022/07/06 04:42:40;;;;;;;2.13;1.50;;;14.80;99.90;15.00;101093.00;;;;4895360;28;94045;-63
2022/07/06 04:45:06;;;;;;;1.40;1.30;;;14.90;99.90;15.10;101082.00;;;;4895766;28;92823;-63
2022/07/06 04:47:32;;;;;;;1.47;1.37;;;15.00;99.90;15.10;101089.00;;;;4896607;28;92926;-63
2022/07/06 04:49:57;;;;;;;1.83;1.70;;;15.00;99.90;15.20;101100.00;;;;4895866;28;93091;-63
2022/07/06 04:52:23;;;;;;;2.67;1.80;;;15.10;99.90;15.30;101095.00;;;;4895326;28;119373;-62
2022/07/06 04:54:49;;;;;;;2.97;1.98;;;15.10;99.90;15.40;101096.00;;;;4895670;28;110930;-63
2022/07/06 04:57:14;;;;;;;1.60;1.50;;;15.30;99.90;15.50;101094.00;;;;4894680;28;107594;-62
2022/07/06 04:59:40;;;;;;;1.65;1.33;;;15.30;99.90;15.60;101102.00;;;;4895892;28;93320;-62
2022/07/06 05:02:06;;;;;;;1.20;1.10;;;15.50;99.90;15.70;101095.00;;;;4894619;28;122330;-62
2022/07/06 05:04:32;;;;;;;1.42;1.33;;;15.60;99.90;15.90;101107.00;;;;4895416;28;99728;-62
2022/07/06 05:06:58;;;;;;;2.25;1.38;;;15.70;99.90;16.00;101109.00;;;;4893585;28;93927;-62
2022/07/06 05:09:24;;;;;;;2.53;1.52;;;15.70;99.90;16.10;101112.00;;;;4891433;28;93887;-63
2022/07/06 05:11:49;;;;;;;1.90;1.38;;;16.00;99.90;16.30;101109.00;;;;4892011;28;121912;-62
2022/07/06 05:14:15;;;;;;;1.10;1.02;;;16.10;99.90;16.40;101114.00;;;;4895769;28;92591;-62
2022/07/06 05:16:41;;;;;;;2.55;1.45;;;16.30;99.90;16.60;101113.00;;;;4894999;28;108652;-62
2022/07/06 05:19:06;;;;;;;1.52;1.25;;;16.50;99.90;16.80;101117.00;;;;4877319;28;96380;-63
2022/07/06 05:21:32;;;;;;;1.77;1.08;;;16.70;99.90;17.00;101122.00;;;;4895264;28;93313;-62
2022/07/06 05:23:58;;;;;;;1.25;1.15;;;16.80;99.90;17.20;101128.00;;;;4895378;28;93609;-63
2022/07/06 05:26:23;;;;;;;2.20;1.25;;;17.00;99.90;17.40;101130.00;;;;4894939;28;108463;-63
2022/07/06 05:28:49;;;;;;;1.70;1.50;;;17.20;99.90;17.50;101131.00;;;;4893952;28;122548;-63
2022/07/06 05:31:15;;;;;;;1.23;1.13;;;17.40;99.90;17.60;101128.00;;;;4894914;28;93915;-63
2022/07/06 05:33:40;;;;;;;0.80;0.80;;;17.50;99.90;17.70;101136.00;;;;4895568;28;102355;-63
2022/07/06 05:36:07;;;;;;;0.95;0.85;;;17.60;99.90;17.80;101145.00;;;;4895872;28;92767;-62
2022/07/06 05:38:33;;;;;;;4.65;0.90;;;17.60;99.90;18.00;101144.00;;;;4895180;28;92530;-63
2022/07/06 05:40:59;;;;;;;2.83;0.93;;;17.80;99.90;18.10;101150.00;;;;4895430;28;93234;-63
2022/07/06 05:43:25;;;;;;;1.00;0.77;;;17.90;99.90;18.20;101141.00;;;;4894239;28;108307;-62
2022/07/06 05:45:50;;;;;;;1.23;1.13;;;18.00;99.90;18.30;101141.00;;;;4895369;28;109146;-63
2022/07/06 05:51:01;;;;;;;0.70;0.65;;;18.20;99.90;18.50;101149.00;;;;4895068;28;92870;-63
2022/07/06 05:53:26;;;;;;;0.65;0.52;;;18.40;99.90;18.60;101142.00;;;;4894757;28;92686;-63
2022/07/06 05:55:52;;;;;;;0.70;0.70;;;18.50;99.90;18.80;101153.00;;;;4894318;28;108979;-64
2022/07/06 05:58:18;;;;;;;0.60;0.60;;;18.60;99.90;19.00;101161.00;;;;4894205;28;122773;-63
2022/07/06 06:00:44;;;;;;;1.02;0.40;;;18.80;99.90;19.20;101153.00;;;;4892851;28;121640;-63
2022/07/06 06:03:09;;;;;;;0.70;0.70;;;19.00;99.90;19.50;101149.00;;;;4893269;28;110464;-63
2022/07/06 06:05:35;;;;;;;0.60;0.50;;;19.30;99.90;19.70;101151.00;;;;4893303;28;108485;-62
2022/07/06 06:08:01;;;;;;;0.50;0.50;;;19.40;99.90;19.80;101151.00;;;;4893931;28;111226;-63
2022/07/06 06:10:27;;;;;;;0.40;0.40;;;19.60;99.90;19.90;101151.00;;;;4891283;28;120606;-61
2022/07/06 06:12:53;;;;;;;0.43;0.43;;;19.70;99.90;19.90;101154.00;;;;4895481;28;91824;-62
2022/07/06 06:15:18;;;;;;;1.95;0.75;;;19.70;99.90;19.90;101160.00;;;;4894681;28;93124;-62
2022/07/06 06:17:44;;;;;;;1.10;0.55;;;19.80;99.90;19.90;101158.00;;;;4893942;28;106619;-61
2022/07/06 06:20:13;;;;;;;0.73;0.57;;;19.80;99.90;19.90;101163.00;;;;4893172;28;122738;-63
2022/07/06 06:22:48;;;;;;;1.55;0.82;;;19.70;99.90;19.90;101161.00;;;;4895425;28;92966;-63
2022/07/06 06:25:19;;;;;;;0.28;0.22;;;19.70;99.90;19.90;101159.00;;;;4895010;28;92896;-62
2022/07/06 06:27:45;;;;;;;0.28;0.28;;;19.80;99.90;20.00;101159.00;;;;4894467;28;94042;-62
2022/07/06 06:30:12;;;;;;;0.90;0.50;;;19.80;99.90;20.10;101164.00;;;;4893109;28;92765;-62
2022/07/06 06:32:39;;;;;;;0.52;0.50;;;19.90;99.90;20.20;101169.00;;;;4876820;28;92882;-62
2022/07/06 06:35:06;;;;;;;0.73;0.43;;;20.00;99.90;20.30;101159.00;;;;4894401;28;92850;-62
2022/07/06 06:37:34;;;;;;;0.20;0.20;;;20.10;99.90;20.30;101164.00;;;;4894675;28;93188;-62
2022/07/06 06:40:00;;;;;;;0.45;0.45;;;20.20;99.90;20.40;101162.00;;;;4894770;28;93047;-62
2022/07/06 06:42:25;;;;;;;1.23;0.52;;;20.20;99.50;20.40;101172.00;;;;4894262;28;92909;-61
2022/07/06 06:44:51;;;;;;;0.40;0.40;;;20.20;99.00;20.50;101165.00;;;;4892553;28;108460;-61
2022/07/06 06:47:19;;;;;;;0.57;0.57;;;20.30;98.60;20.60;101165.00;;;;4893735;28;104568;-61
2022/07/06 06:49:44;;;;;;;0.30;0.30;;;20.40;98.20;20.80;101168.00;;;;4893508;28;93007;-61
2022/07/06 06:52:10;;;;;;;0.47;0.45;;;20.50;97.80;21.00;101160.00;;;;4893270;28;111227;-61
2022/07/06 06:54:35;;;;;;;0.43;0.43;;;20.70;97.50;21.20;101171.00;;;;4892244;28;108659;-61
2022/07/06 06:57:01;;;;;;;1.02;0.73;;;20.90;97.10;21.30;101171.00;;;;4892484;28;122023;-61
2022/07/06 06:59:27;;;;;;;0.75;0.50;;;21.00;96.50;21.50;101171.00;;;;4889916;28;110839;-61
2022/07/06 07:01:52;;;;;;;0.45;0.35;;;21.20;95.80;21.60;101177.00;;;;4893842;28;109915;-62
2022/07/06 07:04:18;;;;;;;0.75;0.63;;;21.40;95.40;21.70;101170.00;;;;4894686;28;93267;-61
2022/07/06 07:06:44;;;;;;;0.38;0.38;;;21.40;94.80;21.70;101183.00;;;;4892432;28;122371;-61
2022/07/06 07:09:09;;;;;;;0.55;0.47;;;21.50;94.00;21.80;101186.00;;;;4890632;28;122878;-60
2022/07/06 07:11:35;;;;;;;0.28;0.28;;;21.60;92.90;21.80;101182.00;;;;4893228;28;110069;-61
2022/07/06 07:14:01;;;;;;;0.20;0.20;;;21.60;92.70;21.80;101188.00;;;;4893274;28;106701;-61
2022/07/06 07:16:27;;;;;;;0.47;0.45;;;21.60;91.70;21.90;101195.00;;;;4894338;28;94044;-61
2022/07/06 07:18:53;;;;;;;0.35;0.35;;;21.70;91.40;21.90;101197.00;;;;4892577;28;123506;-61
2022/07/06 07:21:18;;;;;;;0.40;0.40;;;21.70;90.70;22.00;101202.00;;;;4892808;28;110235;-61
2022/07/06 07:23:44;;;;;;;0.20;0.20;;;21.70;90.30;22.00;101197.00;;;;4892508;28;108274;-61
2022/07/06 07:26:10;;;;;;;2.97;1.08;;;21.70;88.60;21.90;101197.00;;;;4893528;28;92297;-61
2022/07/06 07:28:36;;;;;;;3.13;0.70;;;21.70;86.90;21.90;101201.00;;;;4893344;28;92795;-60
2022/07/06 07:31:02;;;;;;;0.50;0.40;;;21.70;86.20;21.80;101203.00;;;;4893567;28;110155;-61
2022/07/06 07:33:28;;;;;;;0.10;0.10;;;21.60;84.70;21.70;101205.00;;;;4892990;28;94178;-59
2022/07/06 07:35:54;;;;;;;0.30;0.30;;;21.50;83.30;21.60;101222.00;;;;4893915;28;94022;-60
2022/07/06 07:38:19;;;;;;;0.80;0.40;;;21.40;83.60;21.60;101207.00;;;;4892688;28;101294;-61
2022/07/06 07:40:45;;;;;;;0.70;0.30;;;21.40;82.70;21.60;101206.00;;;;4893150;28;111841;-61
2022/07/06 07:43:11;;;;;;;1.27;0.38;;;21.40;81.50;21.60;101213.00;;;;4892061;28;107559;-61
2022/07/06 07:45:37;;;;;;;0.30;0.30;;;21.40;80.60;21.60;101209.00;;;;4891740;28;123281;-61
2022/07/06 07:48:03;;;;;;;0.68;0.52;;;21.40;80.10;21.60;101211.00;;;;4892378;28;123558;-61
2022/07/06 07:50:29;;;;;;;0.40;0.22;;;21.40;79.40;21.60;101210.00;;;;4893416;28;98306;-60
2022/07/06 07:52:55;;;;;;;0.55;0.40;;;21.40;78.50;21.70;101216.00;;;;4893218;28;92861;-61
2022/07/06 07:55:21;;;;;;;0.60;0.40;;;21.40;78.90;22.00;101213.00;;;;4891710;28;122330;-60
2022/07/06 07:57:46;;;;;;;1.15;0.65;;;21.60;78.60;22.20;101208.00;;;;4891049;28;122842;-61
2022/07/06 08:00:14;;;;;;;0.73;0.57;;;21.90;77.20;22.50;101210.00;;;;4874998;28;93206;-60
2022/07/06 08:02:40;;;;;;;0.45;0.30;;;22.10;76.80;22.60;101205.00;;;;4892645;28;93031;-61
2022/07/06 08:05:06;;;;;;;0.30;0.30;;;22.30;74.80;22.70;101210.00;;;;4892093;28;117669;-62
2022/07/06 08:07:32;;;;;;;0.85;0.50;;;22.40;73.60;22.80;101207.00;;;;4892768;28;93088;-61
2022/07/06 08:09:58;;;;;;;0.47;0.40;;;22.50;72.80;22.90;101206.00;;;;4893433;28;93121;-61
2022/07/06 08:12:24;;;;;;;0.45;0.30;;;22.60;71.40;23.00;101196.00;;;;4891913;28;108776;-61
2022/07/06 08:14:50;;;;;;;0.30;0.30;;;22.70;70.30;23.10;101194.00;;;;4894872;28;93071;-60
2022/07/06 08:17:16;;;;;;;0.30;0.30;;;22.80;67.40;23.30;101195.00;;;;4895507;28;120648;-61
2022/07/06 08:19:41;;;;;;;0.70;0.57;;;22.90;67.60;23.70;101195.00;;;;4895067;28;111366;-61
2022/07/06 08:22:08;;;;;;;0.30;0.30;;;23.30;65.20;24.00;101191.00;;;;4890541;28;109523;-60
2022/07/06 08:24:36;;;;;;;0.38;0.32;;;23.60;62.10;24.20;101195.00;;;;4883616;28;93439;-61
2022/07/06 08:27:03;;;;;;;0.85;0.38;;;23.80;60.10;24.30;101193.00;;;;4877410;28;93358;-60
2022/07/06 08:29:30;;;;;;;0.52;0.45;;;24.00;58.00;24.30;101185.00;;;;4875949;28;104321;-61
2022/07/06 08:31:56;;;;;;;1.02;0.20;;;24.00;56.60;24.40;101186.00;;;;4880485;28;93092;-61
2022/07/06 08:34:22;;;;;;;0.50;0.45;;;24.10;55.30;24.60;101187.00;;;;4894903;28;121300;-61
2022/07/06 08:36:48;;;;;;;1.00;0.20;;;24.20;55.00;24.80;101194.00;;;;4896671;28;92946;-61
2022/07/06 08:39:13;;;;;;;0.63;0.40;;;24.40;54.30;24.90;101200.00;;;;4895648;28;97744;-61
2022/07/06 08:41:43;;;;;;;1.52;0.40;;;24.60;53.40;24.80;101202.00;;;;4895521;28;108835;-61
2022/07/06 08:44:09;;;;;;;2.85;1.30;;;24.60;51.60;24.60;101200.00;;;;4895656;28;94119;-62
2022/07/06 08:46:39;;;;;;;1.15;0.60;;;24.50;51.60;24.40;101198.00;;;;4895565;28;103228;-60
2022/07/06 08:49:07;;;;;;;0.63;0.63;;;24.30;52.20;24.50;101202.00;;;;4875796;28;93160;-61
2022/07/06 08:51:35;;;;;;;0.70;0.60;;;24.20;52.60;24.50;101195.00;;;;4877364;28;92985;-61
2022/07/06 08:54:03;;;;;;;1.58;1.23;;;24.30;52.20;24.50;101204.00;;;;4893584;28;123851;-60
2022/07/06 08:56:29;;;;;;;3.50;0.68;;;24.30;51.20;24.50;101203.00;;;;4894976;28;113876;-62
2022/07/06 08:58:55;;;;;;;1.63;0.60;;;24.30;50.00;24.60;101198.00;;;;4896847;28;92937;-61
2022/07/06 09:01:22;;;;;;;5.43;1.27;;;24.40;50.60;24.90;101198.00;;;;4896270;28;93301;-61
2022/07/06 09:03:50;;;;;;;2.63;0.60;;;24.60;50.00;24.90;101212.00;;;;4895355;28;122808;-59
2022/07/06 09:06:26;;;;;;;1.85;0.77;;;24.70;49.00;25.00;101204.00;;;;4894380;28;92932;-62
2022/07/06 09:08:55;;;;;;;0.47;0.35;;;24.70;48.80;25.00;101199.00;;;;4896519;28;92720;-61
2022/07/06 09:11:22;;;;;;;1.75;1.25;;;24.80;47.60;25.00;101198.00;;;;4892285;28;93857;-62
2022/07/06 09:13:48;;;;;;;0.20;0.20;;;24.80;48.00;25.10;101202.00;;;;4891978;28;93916;-61
2022/07/06 09:16:16;;;;;;;0.70;0.50;;;24.80;47.90;25.00;101203.00;;;;4894829;28;116954;-61
2022/07/06 09:18:45;;;;;;;0.35;0.28;;;24.80;47.70;24.90;101201.00;;;;4896508;28;92866;-60
2022/07/06 09:21:11;;;;;;;1.08;0.80;;;24.70;48.00;24.90;101201.00;;;;4895784;28;93082;-61
2022/07/06 09:23:38;;;;;;;0.80;0.30;;;24.70;48.50;25.00;101200.00;;;;4894704;28;96375;-61
2022/07/06 09:26:06;;;;;;;2.10;0.30;;;24.80;48.70;25.20;101203.00;;;;4875566;28;117342;-62
2022/07/06 09:28:45;;;;;;;0.50;0.50;;;24.90;47.30;25.30;101201.00;;;;4896860;28;91869;-61
2022/07/06 09:31:11;;;;;;;0.45;0.30;;;25.00;47.40;25.50;101203.00;;;;4895566;28;92973;-61
2022/07/06 09:33:38;;;;;;;0.60;0.35;;;25.20;47.30;25.70;101189.00;;;;4894166;28;122731;-62
2022/07/06 09:36:05;;;;;;;1.23;0.75;;;25.30;47.00;25.70;101199.00;;;;4894443;28;112043;-61
2022/07/06 09:38:31;;;;;;;2.10;0.47;;;25.40;47.00;25.60;101205.00;;;;4895232;28;92820;-61
2022/07/06 09:40:57;;;;;;;0.68;0.52;;;25.40;46.20;25.40;101204.00;;;;4895059;28;99015;-61
2022/07/06 09:43:24;;;;;;;1.48;0.40;;;25.30;45.30;25.30;101198.00;;;;4893610;28;122873;-61
2022/07/06 09:45:53;;;;;;;0.52;0.52;;;25.10;45.00;25.40;101201.00;;;;4896436;28;95151;-62
2022/07/06 09:48:25;;;;;;;0.93;0.55;;;25.10;44.80;25.50;101198.00;;;;4895761;28;92731;-62
2022/07/06 09:50:58;;;;;;;2.13;0.30;;;25.20;44.90;25.70;101202.00;;;;4896047;28;92800;-62
2022/07/06 09:53:26;;;;;;;0.40;0.25;;;25.40;44.00;25.70;101204.00;;;;4894937;28;92820;-62
2022/07/06 09:55:55;;;;;;;0.57;0.57;;;25.40;43.70;25.70;101203.00;;;;4897033;28;92982;-62
2022/07/06 09:58:22;;;;;;;0.82;0.52;;;25.40;43.30;25.60;101207.00;;;;4895685;28;92964;-62
2022/07/06 10:00:49;;;;;;;0.47;0.47;;;25.30;43.80;25.70;101202.00;;;;4893549;28;93882;-62
2022/07/06 10:03:16;;;;;;;0.30;0.30;;;25.40;44.10;25.70;101213.00;;;;4892023;28;93090;-62
2022/07/06 10:05:46;;;;;;;0.35;0.35;;;25.40;43.60;25.70;101206.00;;;;4877550;28;93256;-61
2022/07/06 10:08:13;;;;;;;0.57;0.28;;;25.40;43.40;25.70;101216.00;;;;4895057;28;92783;-61
2022/07/06 10:10:41;;;;;;;2.88;0.50;;;25.40;43.70;25.60;101210.00;;;;4895057;28;93093;-62
2022/07/06 10:13:08;;;;;;;0.20;0.20;;;25.40;43.40;25.40;101213.00;;;;4893265;28;115326;-61
2022/07/06 10:15:37;;;;;;;0.43;0.25;;;25.20;43.80;25.30;101216.00;;;;4877398;28;93105;-61
2022/07/06 10:18:08;;;;;;;0.77;0.20;;;25.10;43.90;25.30;101210.00;;;;4877952;28;91889;-61
2022/07/06 10:20:38;;;;;;;0.25;0.25;;;25.00;44.40;25.50;101204.00;;;;4895719;28;92826;-62
2022/07/06 10:23:07;;;;;;;1.00;0.30;;;25.10;44.80;25.80;101212.00;;;;4894050;28;93846;-62
2022/07/06 10:25:34;;;;;;;0.45;0.20;;;25.30;44.40;25.90;101217.00;;;;4893907;28;93864;-62
2022/07/06 10:28:01;;;;;;;0.63;0.32;;;25.50;44.30;25.80;101213.00;;;;4895142;28;93268;-62
2022/07/06 10:30:28;;;;;;;0.50;0.20;;;25.50;43.20;25.70;101216.00;;;;4894783;28;92792;-62
2022/07/06 10:32:56;;;;;;;0.55;0.43;;;25.40;43.60;25.70;101197.00;;;;4880340;28;93283;-62
2022/07/06 10:35:22;;;;;;;0.22;0.22;;;25.40;43.20;25.50;101202.00;;;;4873283;28;93063;-62
2022/07/06 10:38:08;;;;;;;0.60;0.50;;;25.30;42.70;25.30;101206.00;;;;4874011;28;110541;-62
2022/07/06 10:43:51;;;;;;;0.10;0.10;;;24.90;43.00;24.90;101201.00;;;;4864434;28;92297;-61
2022/07/06 10:46:19;;;;;;;0.75;0.75;;;24.80;43.70;24.90;101201.00;;;;4873401;28;93056;-62
2022/07/06 10:48:49;;;;;;;1.35;0.30;;;24.60;43.30;25.10;101203.00;;;;4875370;28;92751;-62